Time;durP1;ratioP1;P1;durP2;ratioP2;P2;SDS_P1;SDS_P2;PMS_P1;PMS_P2;Temp;Humidity;BMP_temperature;BMP_pressure;BME280_temperature;BME280_humidity;BME280_pressure;Samples;Min_cycle;Max_cycle;Signal;HPM_P1;HPM_P2
2020/12/08 11:46:28;;;;;;;24.75;12.55;;;7.00;98.80;;;;;;5137724;27;20467;-75
2020/12/08 11:48:55;;;;;;;26.40;13.38;;;6.90;99.00;;;;;;5082335;28;20063;-75
2020/12/08 11:51:21;;;;;;;28.95;12.93;;;6.80;98.90;;;;;;5083379;28;20052;-75
2020/12/08 11:53:48;;;;;;;24.05;11.82;;;7.00;98.70;;;;;;5080200;28;20052;-75
2020/12/08 11:56:15;;;;;;;24.65;13.40;;;7.40;98.20;;;;;;5080258;28;20059;-75
2020/12/08 11:58:43;;;;;;;23.48;12.40;;;7.20;97.60;;;;;;5085401;28;20510;-76
2020/12/08 12:01:09;;;;;;;23.98;12.10;;;7.10;97.70;;;;;;5074816;28;20054;-75
2020/12/08 12:03:35;;;;;;;26.67;12.82;;;7.10;97.60;;;;;;5068223;28;20044;-77
2020/12/08 12:06:02;;;;;;;24.13;13.32;;;7.10;98.00;;;;;;5082318;28;20041;-75
2020/12/08 12:08:28;;;;;;;25.48;12.75;;;7.10;98.10;;;;;;5067019;28;20060;-75
2020/12/08 12:10:55;;;;;;;27.25;12.90;;;7.10;98.00;;;;;;5083945;28;20532;-74
2020/12/08 12:13:21;;;;;;;23.63;11.50;;;7.30;98.00;;;;;;5080301;28;20496;-75
2020/12/08 12:15:47;;;;;;;25.23;12.43;;;7.40;97.70;;;;;;5066234;28;20052;-75
2020/12/08 12:18:15;;;;;;;25.30;13.07;;;7.30;97.50;;;;;;5065984;28;20044;-83
2020/12/08 12:20:42;;;;;;;25.88;13.27;;;7.30;97.70;;;;;;5074605;28;20056;-80
2020/12/08 12:23:08;;;;;;;26.38;12.82;;;7.50;97.80;;;;;;5068206;28;20044;-82
2020/12/08 12:25:35;;;;;;;26.92;12.77;;;8.00;97.40;;;;;;5068056;28;20776;-81
2020/12/08 12:28:01;;;;;;;23.67;12.07;;;8.40;96.40;;;;;;5064444;28;20075;-82
2020/12/08 12:30:29;;;;;;;21.92;12.27;;;8.10;96.30;;;;;;5073586;28;20045;-86
2020/12/08 12:32:56;;;;;;;26.10;12.38;;;7.80;96.50;;;;;;5083214;28;20055;-82
2020/12/08 12:35:22;;;;;;;22.52;12.05;;;7.60;96.60;;;;;;5063731;28;20049;-79
2020/12/08 12:37:49;;;;;;;21.92;11.75;;;7.80;96.90;;;;;;5069663;28;20558;-83
2020/12/08 12:40:16;;;;;;;24.85;13.25;;;7.90;96.80;;;;;;5073147;28;20058;-82
2020/12/08 12:42:42;;;;;;;24.40;13.05;;;7.70;97.00;;;;;;5068186;28;20048;-82
2020/12/08 12:45:08;;;;;;;24.40;12.77;;;7.60;96.90;;;;;;5068384;28;20044;-82
2020/12/08 12:47:35;;;;;;;24.52;12.55;;;7.40;97.10;;;;;;5082725;28;20047;-80
2020/12/08 12:50:02;;;;;;;21.63;12.18;;;7.60;97.30;;;;;;5068851;28;20048;-82
2020/12/08 12:52:29;;;;;;;24.20;12.93;;;7.70;96.80;;;;;;5067823;28;20056;-80
2020/12/08 12:54:55;;;;;;;27.05;13.25;;;7.60;97.30;;;;;;5084567;28;21616;-83
2020/12/08 12:57:22;;;;;;;21.48;11.80;;;7.40;97.00;;;;;;5058357;28;20056;-78
2020/12/08 12:59:49;;;;;;;23.17;11.90;;;7.30;97.30;;;;;;5052785;28;20075;-78
2020/12/08 13:02:16;;;;;;;25.42;13.15;;;7.30;97.50;;;;;;5055136;28;20049;-79
2020/12/08 13:04:43;;;;;;;26.58;12.80;;;7.20;97.40;;;;;;5055188;28;20044;-78
2020/12/08 13:07:09;;;;;;;24.58;12.38;;;7.40;97.70;;;;;;5054112;28;20048;-78
2020/12/08 13:09:36;;;;;;;29.23;13.85;;;7.30;97.30;;;;;;5052359;28;20048;-78
2020/12/08 13:12:03;;;;;;;25.40;12.45;;;7.40;97.80;;;;;;5056417;28;20072;-78
2020/12/08 13:14:29;;;;;;;22.30;11.82;;;7.40;97.60;;;;;;5060305;28;20049;-78
2020/12/08 13:16:56;;;;;;;26.38;12.95;;;7.30;97.40;;;;;;5069139;28;20048;-78
2020/12/08 13:19:22;;;;;;;25.33;13.30;;;7.30;97.70;;;;;;5059269;28;20049;-79
2020/12/08 13:22:05;;;;;;;25.83;12.40;;;7.20;97.60;;;;;;5051229;28;20049;-78
2020/12/08 13:24:31;;;;;;;23.30;11.70;;;7.20;97.70;;;;;;5069133;28;20115;-78
2020/12/08 13:26:59;;;;;;;21.83;11.77;;;7.30;98.10;;;;;;5070483;28;20451;-79
2020/12/08 13:29:25;;;;;;;26.77;11.93;;;7.40;98.20;;;;;;5069308;28;20048;-78
2020/12/08 13:31:52;;;;;;;24.13;12.55;;;7.40;97.70;;;;;;5051441;28;20052;-78
2020/12/08 13:34:18;;;;;;;22.27;11.32;;;7.40;97.60;;;;;;5059484;28;20056;-78
2020/12/08 13:36:46;;;;;;;30.75;13.63;;;7.40;97.90;;;;;;5053043;28;20048;-78
2020/12/08 13:39:13;;;;;;;24.77;12.80;;;7.40;97.80;;;;;;5050943;28;20142;-77
2020/12/08 13:41:39;;;;;;;26.30;13.50;;;7.20;97.60;;;;;;5070104;28;20483;-77
2020/12/08 13:44:06;;;;;;;30.10;12.00;;;7.20;97.80;;;;;;5051869;28;20051;-78
2020/12/08 13:46:32;;;;;;;32.47;14.52;;;7.20;98.10;;;;;;5053223;28;20041;-78
2020/12/08 13:49:00;;;;;;;30.45;14.43;;;7.30;98.30;;;;;;5052459;28;20539;-77
2020/12/08 13:51:26;;;;;;;28.20;13.52;;;7.20;97.60;;;;;;5058620;28;20385;-79
2020/12/08 13:53:53;;;;;;;26.42;13.80;;;7.30;98.10;;;;;;5050481;28;20484;-78
2020/12/08 13:56:21;;;;;;;24.05;11.95;;;7.40;98.20;;;;;;5050914;28;20661;-77
2020/12/08 13:58:51;;;;;;;22.27;11.23;;;7.30;97.90;;;;;;5057251;28;20059;-79
2020/12/08 14:01:19;;;;;;;29.53;13.70;;;7.30;97.80;;;;;;5058239;28;20057;-76
2020/12/08 14:03:46;;;;;;;26.08;13.43;;;7.10;97.90;;;;;;5053510;28;20317;-78
2020/12/08 14:06:14;;;;;;;49.95;21.80;;;7.30;98.30;;;;;;5063786;28;20045;-78
2020/12/08 14:08:40;;;;;;;24.60;12.82;;;7.30;98.20;;;;;;5051971;28;20052;-77
2020/12/08 14:11:07;;;;;;;23.40;12.32;;;7.20;98.00;;;;;;5052503;28;20048;-77
2020/12/08 14:13:34;;;;;;;21.70;11.48;;;7.10;98.10;;;;;;5068927;28;20084;-77
2020/12/08 14:16:04;;;;;;;23.77;11.52;;;7.20;98.30;;;;;;5058634;28;20049;-77
2020/12/08 14:18:31;;;;;;;30.50;12.30;;;7.20;98.20;;;;;;5055766;28;20059;-79
2020/12/08 14:20:59;;;;;;;22.02;11.57;;;7.10;98.40;;;;;;5065500;28;20067;-78
2020/12/08 14:23:25;;;;;;;23.20;12.45;;;7.00;98.70;;;;;;5065236;28;20419;-78
2020/12/08 14:25:54;;;;;;;22.85;11.80;;;7.00;99.00;;;;;;5052533;28;20059;-77
2020/12/08 14:28:20;;;;;;;25.40;12.00;;;7.10;99.00;;;;;;5057931;28;20055;-78
2020/12/08 14:30:47;;;;;;;22.38;10.90;;;7.10;98.50;;;;;;5051300;28;20048;-78
2020/12/08 14:33:14;;;;;;;22.40;11.65;;;7.10;98.70;;;;;;5053882;28;20095;-78
2020/12/08 14:35:40;;;;;;;24.67;12.20;;;7.00;98.20;;;;;;5055190;28;20052;-78
2020/12/08 14:38:06;;;;;;;22.95;11.90;;;7.10;98.10;;;;;;5057168;28;20162;-77
2020/12/08 14:40:33;;;;;;;21.90;11.82;;;7.00;98.20;;;;;;5069234;28;20059;-78
2020/12/08 14:42:59;;;;;;;22.92;12.13;;;6.90;98.20;;;;;;5050735;28;20072;-77
2020/12/08 14:45:26;;;;;;;21.70;11.35;;;6.90;98.20;;;;;;5052526;28;20067;-78
2020/12/08 14:47:52;;;;;;;20.40;11.45;;;6.80;98.40;;;;;;5050147;28;20049;-77
2020/12/08 14:50:19;;;;;;;22.05;11.90;;;6.90;98.40;;;;;;5065748;28;20052;-78
2020/12/08 14:52:46;;;;;;;21.75;11.90;;;6.80;98.40;;;;;;5057003;28;20074;-78
2020/12/08 14:55:13;;;;;;;22.23;11.88;;;6.90;98.60;;;;;;5057058;28;20045;-77
2020/12/08 14:57:39;;;;;;;26.55;11.93;;;7.00;98.60;;;;;;5049672;28;20045;-77
2020/12/08 15:00:08;;;;;;;23.63;12.32;;;6.90;98.60;;;;;;5062998;28;20071;-77
2020/12/08 15:02:35;;;;;;;43.15;18.30;;;6.90;98.80;;;;;;5061970;28;20048;-78
2020/12/08 15:05:01;;;;;;;30.25;15.07;;;6.90;99.10;;;;;;5061761;28;20141;-78
2020/12/08 15:07:28;;;;;;;21.30;11.57;;;6.90;99.10;;;;;;5063952;28;20067;-77
2020/12/08 15:09:55;;;;;;;23.15;11.95;;;6.90;99.10;;;;;;5074479;28;20067;-77
2020/12/08 15:12:21;;;;;;;26.05;13.20;;;6.90;99.40;;;;;;5072456;28;20052;-78
2020/12/08 15:14:48;;;;;;;23.67;11.48;;;6.90;99.60;;;;;;5065070;28;20751;-79
2020/12/08 15:17:15;;;;;;;23.10;11.82;;;6.80;99.60;;;;;;5056270;28;20451;-77
2020/12/08 15:19:44;;;;;;;28.80;13.32;;;6.90;99.90;;;;;;5065832;28;20099;-78
2020/12/08 15:22:11;;;;;;;26.20;13.10;;;6.70;99.90;;;;;;5063680;28;20063;-77
2020/12/08 15:24:38;;;;;;;28.00;13.63;;;6.60;99.90;;;;;;5067556;28;20130;-77
2020/12/08 15:27:06;;;;;;;26.13;13.32;;;6.60;99.90;;;;;;5076394;28;20135;-76
2020/12/08 15:29:33;;;;;;;32.15;13.20;;;6.60;99.90;;;;;;5060773;28;20140;-77
2020/12/08 15:32:00;;;;;;;26.27;13.63;;;6.60;99.90;;;;;;5064337;28;20060;-78
2020/12/08 15:34:26;;;;;;;27.25;12.95;;;6.60;99.90;;;;;;5055307;28;20060;-78
2020/12/08 15:36:53;;;;;;;29.20;14.43;;;6.60;99.90;;;;;;5068741;28;20042;-78
2020/12/08 15:39:20;;;;;;;29.33;13.80;;;6.70;99.90;;;;;;5063196;28;20096;-77
2020/12/08 15:41:47;;;;;;;26.70;13.20;;;6.60;99.90;;;;;;5063629;28;20052;-77
2020/12/08 15:44:15;;;;;;;27.08;13.32;;;6.50;99.90;;;;;;5061194;28;20105;-79
2020/12/08 15:46:41;;;;;;;25.83;13.88;;;6.50;99.90;;;;;;5065634;28;20080;-76
2020/12/08 15:49:08;;;;;;;29.95;14.05;;;6.40;99.90;;;;;;5061063;28;20052;-77
2020/12/08 15:51:34;;;;;;;36.58;14.93;;;6.40;99.90;;;;;;5062907;28;20147;-77
2020/12/08 15:54:01;;;;;;;29.55;13.80;;;6.50;99.90;;;;;;5077978;28;20049;-82
2020/12/08 15:56:27;;;;;;;26.67;13.98;;;6.40;99.90;;;;;;5064797;28;20052;-76
2020/12/08 15:58:54;;;;;;;32.72;14.77;;;6.40;99.90;;;;;;5059105;28;20551;-77
2020/12/08 16:01:21;;;;;;;31.63;14.70;;;6.40;99.90;;;;;;5059950;28;20717;-77
2020/12/08 16:03:48;;;;;;;29.95;14.73;;;6.20;99.90;;;;;;5060897;28;20044;-77
2020/12/08 16:06:14;;;;;;;30.67;14.80;;;6.30;99.90;;;;;;5061219;28;20052;-76
2020/12/08 16:08:47;;;;;;;31.58;13.88;;;6.30;99.90;;;;;;5065295;28;20055;-78
2020/12/08 16:11:15;;;;;;;27.15;13.57;;;6.30;99.90;;;;;;5056833;28;20049;-76
2020/12/08 16:13:41;;;;;;;31.30;14.27;;;6.30;99.90;;;;;;5069955;28;20787;-77
2020/12/08 16:16:10;;;;;;;30.38;13.90;;;6.40;99.90;;;;;;5056381;28;20056;-80
2020/12/08 16:18:37;;;;;;;30.08;14.00;;;6.30;99.90;;;;;;5048846;28;20053;-77
2020/12/08 16:21:06;;;;;;;27.05;12.63;;;6.30;99.90;;;;;;5066952;28;20097;-76
2020/12/08 16:23:33;;;;;;;25.55;12.75;;;6.30;99.90;;;;;;5064097;28;20479;-77
2020/12/08 16:26:00;;;;;;;29.42;14.68;;;6.20;99.90;;;;;;5048757;28;20059;-77
2020/12/08 16:28:27;;;;;;;30.67;14.98;;;6.20;99.90;;;;;;5048631;28;20186;-77
2020/12/08 16:30:54;;;;;;;32.55;15.02;;;6.20;99.90;;;;;;5053729;28;20594;-78
2020/12/08 16:33:22;;;;;;;32.78;14.73;;;6.20;99.90;;;;;;5062152;28;20857;-76
2020/12/08 16:35:51;;;;;;;34.50;15.30;;;6.10;99.90;;;;;;5059865;28;20059;-77
2020/12/08 16:38:18;;;;;;;31.58;14.73;;;6.10;99.90;;;;;;5069231;28;20072;-78
2020/12/08 16:40:44;;;;;;;33.28;15.98;;;6.00;99.90;;;;;;5067413;28;20053;-79
2020/12/08 16:43:11;;;;;;;38.58;15.23;;;5.90;99.90;;;;;;5051644;28;20067;-78
2020/12/08 16:45:37;;;;;;;35.50;16.38;;;6.00;99.90;;;;;;5071632;28;20416;-79
2020/12/08 16:48:05;;;;;;;31.83;15.95;;;6.00;99.90;;;;;;5070704;28;20660;-79
2020/12/08 16:50:31;;;;;;;30.52;14.35;;;6.00;99.90;;;;;;5059764;28;20049;-79
2020/12/08 16:53:04;;;;;;;35.00;15.45;;;6.10;99.90;;;;;;5060899;28;20840;-83
2020/12/08 16:55:30;;;;;;;35.15;15.45;;;5.90;99.90;;;;;;5059086;28;20063;-82
2020/12/08 16:57:57;;;;;;;28.98;14.98;;;5.80;99.90;;;;;;5071378;28;20053;-81
2020/12/08 17:00:26;;;;;;;28.35;14.40;;;5.80;99.90;;;;;;5063684;28;20147;-80
2020/12/08 17:02:54;;;;;;;33.97;16.05;;;5.80;99.90;;;;;;5061860;28;20083;-80
2020/12/08 17:05:21;;;;;;;31.02;15.38;;;5.70;99.90;;;;;;5062045;28;20045;-81
2020/12/08 17:07:47;;;;;;;32.67;14.32;;;5.70;99.90;;;;;;5059214;28;20051;-83
2020/12/08 17:10:17;;;;;;;34.15;15.52;;;5.80;99.90;;;;;;5060085;28;20040;-82
2020/12/08 17:12:44;;;;;;;30.23;15.70;;;5.80;99.90;;;;;;5063623;28;20048;-82
2020/12/08 17:15:11;;;;;;;30.48;14.23;;;5.70;99.90;;;;;;5070870;28;20045;-84
2020/12/08 17:17:38;;;;;;;44.03;21.98;;;5.70;99.90;;;;;;5068947;28;20058;-81
2020/12/08 17:20:14;;;;;;;32.22;15.02;;;5.80;99.90;;;;;;5076086;28;20060;-80
2020/12/08 17:22:47;;;;;;;32.53;15.00;;;5.90;99.90;;;;;;5069156;28;20048;-84
2020/12/08 17:25:15;;;;;;;33.70;14.77;;;5.80;99.90;;;;;;5073421;28;20651;-84
2020/12/08 17:27:42;;;;;;;29.13;14.80;;;5.70;99.90;;;;;;5070437;28;20489;-84
2020/12/08 17:30:13;;;;;;;28.95;14.05;;;5.70;99.90;;;;;;5075652;28;20052;-82
2020/12/08 17:32:41;;;;;;;27.42;13.57;;;5.50;99.90;;;;;;5075506;28;20049;-84
2020/12/08 17:35:08;;;;;;;30.55;14.68;;;5.70;99.90;;;;;;5070547;28;20074;-85
2020/12/08 17:37:49;;;;;;;27.75;13.60;;;5.70;99.90;;;;;;5066503;28;20140;-84
2020/12/08 17:40:20;;;;;;;26.92;13.13;;;5.70;99.90;;;;;;5090677;28;20091;-84
2020/12/08 17:42:55;;;;;;;31.10;13.95;;;5.80;99.90;;;;;;5065546;28;20134;-85
2020/12/08 17:45:29;;;;;;;35.78;15.82;;;5.80;99.90;;;;;;5068420;28;20107;-86
2020/12/08 17:47:59;;;;;;;30.50;14.90;;;5.70;99.90;;;;;;5091344;28;20048;-84
2020/12/08 17:50:27;;;;;;;31.95;16.15;;;5.60;99.90;;;;;;5087347;28;20037;-85
2020/12/08 17:53:02;;;;;;;33.08;16.98;;;5.50;99.90;;;;;;5071947;28;20045;-83
2020/12/08 17:55:29;;;;;;;47.38;22.50;;;5.60;99.90;;;;;;5075427;28;20046;-84
2020/12/08 17:57:56;;;;;;;38.72;19.52;;;5.50;99.90;;;;;;5072583;28;20093;-84
2020/12/08 18:00:23;;;;;;;32.72;15.93;;;5.50;99.90;;;;;;5079136;28;20052;-83
2020/12/08 18:02:53;;;;;;;32.42;14.80;;;5.50;99.90;;;;;;5077377;28;20071;-84
2020/12/08 18:05:19;;;;;;;34.45;15.15;;;5.50;99.90;;;;;;5072078;28;20049;-84
2020/12/08 18:07:48;;;;;;;35.00;14.98;;;5.50;99.90;;;;;;5085441;28;20045;-84
2020/12/08 18:10:18;;;;;;;29.67;14.57;;;5.60;99.90;;;;;;5069904;28;20048;-85
2020/12/08 18:12:47;;;;;;;28.98;14.00;;;5.60;99.90;;;;;;5070868;28;20044;-84
2020/12/08 18:15:14;;;;;;;30.33;14.80;;;5.50;99.90;;;;;;5069206;28;20400;-84
2020/12/08 18:17:41;;;;;;;28.27;14.32;;;5.40;99.90;;;;;;5071847;28;20053;-84
2020/12/08 18:20:10;;;;;;;34.97;15.80;;;5.50;99.90;;;;;;5073288;28;20484;-84
2020/12/08 18:22:39;;;;;;;35.80;15.73;;;5.50;99.90;;;;;;5073434;28;20048;-86
2020/12/08 18:25:05;;;;;;;31.90;15.57;;;5.30;99.90;;;;;;5075118;28;20427;-85
2020/12/08 18:27:32;;;;;;;32.75;16.35;;;5.40;99.90;;;;;;5074567;28;20514;-83
2020/12/08 18:29:59;;;;;;;30.38;14.95;;;5.50;99.90;;;;;;5081190;28;20480;-85
2020/12/08 18:32:39;;;;;;;;;;;5.40;99.90;;;;;;5064820;28;20123;-83
2020/12/08 18:35:07;;;;;;;34.92;15.60;;;5.40;99.90;;;;;;5071235;28;20416;-84
2020/12/08 18:37:41;;;;;;;32.85;15.48;;;5.50;99.90;;;;;;5070703;28;20076;-85
2020/12/08 18:40:08;;;;;;;40.90;16.02;;;5.40;99.90;;;;;;5083002;28;20048;-85
2020/12/08 18:42:45;;;;;;;34.83;15.68;;;5.40;99.90;;;;;;5070564;28;20445;-85
2020/12/08 18:45:12;;;;;;;39.25;18.42;;;5.30;99.90;;;;;;5064346;28;20294;-85
2020/12/08 18:47:39;;;;;;;49.75;23.65;;;5.20;99.90;;;;;;5073536;28;20048;-84
2020/12/08 18:50:07;;;;;;;32.72;15.40;;;5.20;99.90;;;;;;5070870;28;20098;-85
2020/12/08 18:52:34;;;;;;;35.03;16.27;;;5.30;99.90;;;;;;5070896;28;20048;-82
2020/12/08 18:55:06;;;;;;;33.75;16.20;;;5.20;99.90;;;;;;5070675;28;20125;-86
2020/12/08 18:57:41;;;;;;;35.72;15.57;;;5.30;99.90;;;;;;5056694;28;20052;-84
2020/12/08 19:00:11;;;;;;;30.98;15.50;;;5.40;99.90;;;;;;5075136;28;20040;-86
2020/12/08 19:03:03;;;;;;;30.90;14.02;;;5.30;99.90;;;;;;5070231;28;20052;-86
2020/12/08 19:05:30;;;;;;;34.05;15.98;;;5.30;99.90;;;;;;5065773;28;20396;-87
2020/12/08 19:07:57;;;;;;;34.10;15.93;;;5.20;99.90;;;;;;5101204;28;20084;-90
2020/12/08 19:10:25;;;;;;;33.60;15.70;;;5.30;99.90;;;;;;5078051;28;20048;-87
2020/12/08 19:12:55;;;;;;;35.47;15.30;;;5.20;99.90;;;;;;5079768;28;20731;-86
2020/12/08 19:15:23;;;;;;;38.63;16.58;;;5.00;99.90;;;;;;5074471;28;20054;-85
2020/12/08 19:17:53;;;;;;;36.88;15.80;;;5.00;99.90;;;;;;5074041;28;20415;-87
2020/12/08 19:20:22;;;;;;;35.72;15.73;;;5.10;99.90;;;;;;5077090;28;20071;-87
2020/12/08 19:22:50;;;;;;;34.10;15.20;;;5.00;99.90;;;;;;5071404;28;20052;-86
2020/12/08 19:25:17;;;;;;;33.53;16.08;;;5.00;99.90;;;;;;5073097;28;20172;-86
2020/12/08 19:27:50;;;;;;;38.55;16.35;;;5.00;99.90;;;;;;5083452;28;20229;-87
2020/12/08 19:30:18;;;;;;;33.85;16.70;;;5.00;99.90;;;;;;5079766;28;20048;-86
2020/12/08 19:33:44;;;;;;;36.08;16.75;;;5.00;99.90;;;;;;5076652;28;20128;-86
2020/12/08 19:37:28;;;;;;;;;;;;;;;;;;;;;
2020/12/08 19:41:06;;;;;;;;;;;;;;;;;;;;;
2020/12/08 19:44:39;;;;;;;;;;;;;;;;;;;;;
2020/12/08 19:51:29;;;;;;;32.60;15.52;;;5.00;99.90;;;;;;5012163;28;20107;-86
2020/12/08 19:54:29;;;;;;;;;;;;;;;;;;;;;
2020/12/08 19:57:30;;;;;;;37.17;16.40;;;5.10;99.90;;;;;;5011961;28;20053;-86
2020/12/08 20:00:17;;;;;;;32.75;15.75;;;5.00;99.90;;;;;;5014197;28;20413;-83
2020/12/08 20:02:50;;;;;;;34.97;16.00;;;5.00;99.90;;;;;;5007682;28;20056;-85
2020/12/08 20:05:31;;;;;;;36.20;16.77;;;5.00;99.90;;;;;;5023471;28;20049;-85
2020/12/08 20:08:02;;;;;;;35.20;15.57;;;5.00;99.90;;;;;;5017394;28;20056;-82
2020/12/08 20:10:41;;;;;;;34.65;16.77;;;4.90;99.90;;;;;;4999591;28;20386;-85
2020/12/08 20:13:25;;;;;;;37.35;16.35;;;4.90;99.90;;;;;;5020816;28;20049;-83
2020/12/08 20:15:59;;;;;;;35.75;16.13;;;4.90;99.90;;;;;;5021894;28;20143;-81
2020/12/08 20:18:26;;;;;;;36.20;16.40;;;5.00;99.90;;;;;;4999213;28;20061;-81
2020/12/08 20:21:02;;;;;;;39.63;17.55;;;4.90;99.90;;;;;;5005202;28;20511;-81
2020/12/08 20:23:34;;;;;;;48.33;18.40;;;4.80;99.90;;;;;;5059048;28;20099;-84
2020/12/08 20:26:10;;;;;;;51.70;17.60;;;5.00;99.90;;;;;;5054580;28;20144;-84
2020/12/08 20:28:43;;;;;;;47.40;18.17;;;4.90;99.90;;;;;;5062139;28;20055;-79
2020/12/08 20:31:13;;;;;;;48.90;18.50;;;4.90;99.90;;;;;;5070881;28;20053;-82
2020/12/08 20:33:56;;;;;;;61.83;22.00;;;4.90;99.90;;;;;;5057150;28;20059;-83
2020/12/08 20:36:46;;;;;;;;;;;;;;;;;;;;;
2020/12/08 20:39:50;;;;;;;44.72;18.05;;;4.90;99.90;;;;;;5051246;28;20063;-83
2020/12/08 20:42:27;;;;;;;;;;;4.80;99.90;;;;;;5070531;28;20514;-82
2020/12/08 20:45:14;;;;;;;47.63;18.17;;;4.70;99.90;;;;;;5061221;28;20386;-84
2020/12/08 20:48:13;;;;;;;41.60;17.52;;;4.70;99.90;;;;;;5057572;28;20117;-83
2020/12/08 20:51:01;;;;;;;35.78;17.20;;;4.80;99.90;;;;;;5059156;28;20084;-86
2020/12/08 20:53:49;;;;;;;34.65;16.83;;;5.00;99.90;;;;;;5063510;28;20053;-84
2020/12/08 20:56:42;;;;;;;;;;;;;;;;;;;;;
2020/12/08 20:59:29;;;;;;;38.05;17.98;;;4.90;99.90;;;;;;5056658;28;20131;-82
2020/12/08 21:02:23;;;;;;;38.90;18.90;;;5.00;99.90;;;;;;5071140;28;20071;-83
2020/12/08 21:05:04;;;;;;;37.42;17.63;;;4.90;99.90;;;;;;5069871;28;20053;-80
2020/12/08 21:08:07;;;;;;;42.50;19.17;;;4.80;99.90;;;;;;5056712;28;20160;-83
2020/12/08 21:11:14;;;;;;;;;;;;;;;;;;;;;
2020/12/08 21:14:26;;;;;;;36.50;16.20;;;4.70;99.90;;;;;;5048722;28;20059;-83
2020/12/08 21:17:19;;;;;;;37.65;16.60;;;4.80;99.90;;;;;;5055832;28;20800;-84
2020/12/08 21:20:07;;;;;;;35.88;17.20;;;4.80;99.90;;;;;;5056898;28;20064;-86
2020/12/08 21:22:51;;;;;;;;;;;;;;;;;;;;;
2020/12/08 21:26:13;;;;;;;39.58;17.58;;;4.80;99.90;;;;;;5056359;28;20063;-83
2020/12/08 21:29:26;;;;;;;37.20;17.83;;;4.80;99.90;;;;;;5051087;28;20144;-82
2020/12/08 21:35:34;;;;;;;35.42;16.52;;;4.80;99.90;;;;;;5025035;28;19931;-83
2020/12/08 21:39:05;;;;;;;;;;;;;;;;;;;;;
2020/12/08 21:45:37;;;;;;;39.63;17.65;;;4.90;99.90;;;;;;5009496;28;20057;-84
2020/12/08 21:48:26;;;;;;;;;;;;;;;;;;;;;
2020/12/08 21:51:20;;;;;;;47.77;20.10;;;4.70;99.90;;;;;;4956703;28;20214;-82
2020/12/08 21:58:00;;;;;;;;;;;;;;;;;;;;;
2020/12/08 22:00:51;;;;;;;40.60;18.38;;;4.70;99.90;;;;;;4956127;28;20043;-83
2020/12/08 22:03:54;;;;;;;40.15;18.77;;;4.80;99.90;;;;;;4954356;28;20133;-83
2020/12/08 22:10:46;;;;;;;39.72;17.83;;;4.40;99.90;;;;;;4925136;28;20051;-84
2020/12/08 22:13:36;;;;;;;37.20;17.23;;;4.50;99.90;;;;;;4954628;28;20104;-84
2020/12/08 22:16:25;;;;;;;40.38;17.63;;;4.60;99.90;;;;;;4999426;28;20068;-83
2020/12/08 22:22:31;;;;;;;34.92;16.23;;;4.90;99.90;;;;;;5019006;28;20196;-83
2020/12/08 22:25:27;;;;;;;36.05;16.50;;;5.00;99.90;;;;;;4995009;28;20068;-83
2020/12/08 22:28:21;;;;;;;;;;;;;;;;;;;;;
2020/12/08 22:31:27;;;;;;;;;;;;;;;;;;;;;
2020/12/08 22:34:07;;;;;;;35.25;16.48;;;5.00;99.90;;;;;;4992983;28;20429;-84
2020/12/08 22:37:01;;;;;;;34.67;15.90;;;5.00;99.90;;;;;;4979202;28;20081;-83
2020/12/08 22:39:50;;;;;;;34.05;15.52;;;5.00;99.90;;;;;;4968632;28;20062;-85
2020/12/08 22:42:22;;;;;;;35.40;16.05;;;5.00;99.90;;;;;;4989664;28;20105;-82
2020/12/08 22:44:49;;;;;;;38.90;17.27;;;5.00;99.90;;;;;;5002156;28;20588;-83
2020/12/08 22:47:19;;;;;;;36.70;17.48;;;5.10;99.90;;;;;;5038747;28;20044;-84
2020/12/08 22:49:46;;;;;;;40.22;17.52;;;5.00;99.90;;;;;;5065602;28;20048;-82
2020/12/08 22:52:24;;;;;;;35.72;16.65;;;5.10;99.90;;;;;;5064160;28;20120;-84
2020/12/08 22:54:57;;;;;;;28.65;15.95;;;5.10;99.90;;;;;;5055896;28;20055;-84
2020/12/08 22:57:25;;;;;;;38.72;17.35;;;5.00;99.90;;;;;;5048526;28;20056;-80
2020/12/08 22:59:52;;;;;;;37.10;16.42;;;4.80;99.90;;;;;;5064179;28;20053;-81
2020/12/08 23:02:30;;;;;;;39.55;17.80;;;4.80;99.90;;;;;;5049955;28;20163;-83
2020/12/08 23:05:00;;;;;;;36.92;16.55;;;4.90;99.90;;;;;;5063529;28;20044;-82
2020/12/08 23:07:32;;;;;;;36.95;16.98;;;4.90;99.90;;;;;;5051786;28;20045;-84
2020/12/08 23:10:01;;;;;;;35.72;15.90;;;5.00;99.90;;;;;;5051510;28;20048;-85
2020/12/08 23:12:31;;;;;;;35.40;16.27;;;5.00;99.90;;;;;;5051849;28;20160;-83
2020/12/08 23:14:59;;;;;;;33.42;16.05;;;5.00;99.90;;;;;;5063882;28;20086;-79
2020/12/08 23:17:28;;;;;;;40.70;16.83;;;5.10;99.90;;;;;;5047384;28;20135;-85
2020/12/08 23:20:14;;;;;;;37.05;18.40;;;5.00;99.90;;;;;;5047781;28;20049;-81
2020/12/08 23:22:47;;;;;;;37.03;17.50;;;5.00;99.90;;;;;;5050471;28;20389;-81
2020/12/08 23:25:19;;;;;;;36.67;16.83;;;5.00;99.90;;;;;;5054427;28;20048;-82
2020/12/08 23:27:46;;;;;;;42.78;18.17;;;5.00;99.90;;;;;;5051654;28;20095;-84
2020/12/08 23:30:14;;;;;;;38.40;17.83;;;5.00;99.90;;;;;;5051601;28;20055;-83
2020/12/08 23:32:41;;;;;;;41.38;18.15;;;5.10;99.90;;;;;;5056096;28;20093;-82
2020/12/08 23:35:09;;;;;;;37.50;17.88;;;5.00;99.90;;;;;;5049352;28;20041;-77
2020/12/08 23:37:39;;;;;;;35.67;17.50;;;4.90;99.90;;;;;;5048833;28;20106;-77
2020/12/08 23:40:08;;;;;;;39.03;17.83;;;5.10;99.90;;;;;;5050071;28;20110;-77
2020/12/08 23:42:35;;;;;;;35.60;17.35;;;5.00;99.90;;;;;;5064500;28;20059;-77
2020/12/08 23:45:04;;;;;;;38.38;17.15;;;5.00;99.90;;;;;;5050909;28;20048;-76
2020/12/08 23:47:35;;;;;;;34.38;15.98;;;4.90;99.90;;;;;;5046850;28;20139;-76
2020/12/08 23:50:03;;;;;;;;;;;5.00;99.90;;;;;;5049206;28;20481;-76
2020/12/08 23:52:33;;;;;;;31.60;15.75;;;5.10;99.90;;;;;;5063669;28;19931;-76
2020/12/08 23:54:59;;;;;;;36.03;17.00;;;5.20;99.90;;;;;;5050514;28;20045;-76
2020/12/08 23:57:31;;;;;;;36.17;17.02;;;5.20;99.90;;;;;;5049662;28;20500;-75
2020/12/08 23:59:57;;;;;;;36.88;17.10;;;5.20;99.90;;;;;;5047303;28;20055;-76
